sensor_id;sensor_type;location;lat;lon;timestamp;P1;P2;P0
70554;PMS5003;58104;52.744;15.242;2023-07-29T00:01:14;5;5;
70554;PMS5003;58104;52.744;15.242;2023-07-29T00:03:40;5;5;
70554;PMS5003;58104;52.744;15.242;2023-07-29T00:06:05;6;5;
70554;PMS5003;58104;52.744;15.242;2023-07-29T00:08:31;5;5;
70554;PMS5003;58104;52.744;15.242;2023-07-29T00:10:56;6;6;
70554;PMS5003;58104;52.744;15.242;2023-07-29T00:13:21;7;7;
70554;PMS5003;58104;52.744;15.242;2023-07-29T00:15:47;8;7;
70554;PMS5003;58104;52.744;15.242;2023-07-29T00:18:12;10;7;
70554;PMS5003;58104;52.744;15.242;2023-07-29T00:20:37;7;5;
70554;PMS5003;58104;52.744;15.242;2023-07-29T00:23:03;6;6;
70554;PMS5003;58104;52.744;15.242;2023-07-29T00:25:28;5;5;
70554;PMS5003;58104;52.744;15.242;2023-07-29T00:27:54;4;4;
70554;PMS5003;58104;52.744;15.242;2023-07-29T00:30:19;6;6;
70554;PMS5003;58104;52.744;15.242;2023-07-29T00:32:44;4;4;
70554;PMS5003;58104;52.744;15.242;2023-07-29T00:35:09;5;5;
70554;PMS5003;58104;52.744;15.242;2023-07-29T00:37:35;6;6;
70554;PMS5003;58104;52.744;15.242;2023-07-29T00:40:00;5;5;
70554;PMS5003;58104;52.744;15.242;2023-07-29T00:42:26;5;5;
70554;PMS5003;58104;52.744;15.242;2023-07-29T00:44:51;6;6;
70554;PMS5003;58104;52.744;15.242;2023-07-29T00:47:16;6;5;
70554;PMS5003;58104;52.744;15.242;2023-07-29T00:49:42;6;6;
70554;PMS5003;58104;52.744;15.242;2023-07-29T00:52:07;6;6;
70554;PMS5003;58104;52.744;15.242;2023-07-29T00:54:32;6;4;
70554;PMS5003;58104;52.744;15.242;2023-07-29T00:56:58;6;5;
70554;PMS5003;58104;52.744;15.242;2023-07-29T00:59:23;6;6;
70554;PMS5003;58104;52.744;15.242;2023-07-29T01:01:48;5;4;
70554;PMS5003;58104;52.744;15.242;2023-07-29T01:04:14;6;6;
70554;PMS5003;58104;52.744;15.242;2023-07-29T01:06:41;5;5;
70554;PMS5003;58104;52.744;15.242;2023-07-29T01:09:05;5;5;
70554;PMS5003;58104;52.744;15.242;2023-07-29T01:11:33;5;5;
70554;PMS5003;58104;52.744;15.242;2023-07-29T01:13:57;5;5;
70554;PMS5003;58104;52.744;15.242;2023-07-29T01:16:23;6;5;
70554;PMS5003;58104;52.744;15.242;2023-07-29T01:18:47;4;4;
70554;PMS5003;58104;52.744;15.242;2023-07-29T01:21:11;6;6;
70554;PMS5003;58104;52.744;15.242;2023-07-29T01:23:37;5;5;
70554;PMS5003;58104;52.744;15.242;2023-07-29T01:26:02;6;6;
70554;PMS5003;58104;52.744;15.242;2023-07-29T01:28:27;6;6;
70554;PMS5003;58104;52.744;15.242;2023-07-29T01:30:55;5;5;
70554;PMS5003;58104;52.744;15.242;2023-07-29T01:33:20;5;5;
70554;PMS5003;58104;52.744;15.242;2023-07-29T01:35:45;6;5;
70554;PMS5003;58104;52.744;15.242;2023-07-29T01:38:09;5;4;
70554;PMS5003;58104;52.744;15.242;2023-07-29T01:40:34;5;5;
70554;PMS5003;58104;52.744;15.242;2023-07-29T01:42:59;5;5;
70554;PMS5003;58104;52.744;15.242;2023-07-29T01:45:25;7;4;
70554;PMS5003;58104;52.744;15.242;2023-07-29T01:47:50;5;4;
70554;PMS5003;58104;52.744;15.242;2023-07-29T01:50:16;5;5;
70554;PMS5003;58104;52.744;15.242;2023-07-29T01:52:41;4;4;
70554;PMS5003;58104;52.744;15.242;2023-07-29T01:55:07;5;5;
70554;PMS5003;58104;52.744;15.242;2023-07-29T01:57:32;6;5;
70554;PMS5003;58104;52.744;15.242;2023-07-29T01:59:57;6;6;
70554;PMS5003;58104;52.744;15.242;2023-07-29T02:02:22;6;6;
70554;PMS5003;58104;52.744;15.242;2023-07-29T02:04:48;4;4;
70554;PMS5003;58104;52.744;15.242;2023-07-29T02:07:13;6;6;
70554;PMS5003;58104;52.744;15.242;2023-07-29T02:09:38;4;4;
70554;PMS5003;58104;52.744;15.242;2023-07-29T02:12:04;5;5;
70554;PMS5003;58104;52.744;15.242;2023-07-29T02:14:29;6;4;
70554;PMS5003;58104;52.744;15.242;2023-07-29T02:16:54;3;3;
70554;PMS5003;58104;52.744;15.242;2023-07-29T02:19:20;4;4;
70554;PMS5003;58104;52.744;15.242;2023-07-29T02:21:45;4;4;
70554;PMS5003;58104;52.744;15.242;2023-07-29T02:24:11;4;4;
70554;PMS5003;58104;52.744;15.242;2023-07-29T02:26:36;4;4;
70554;PMS5003;58104;52.744;15.242;2023-07-29T02:29:01;5;5;
70554;PMS5003;58104;52.744;15.242;2023-07-29T02:31:27;6;5;
70554;PMS5003;58104;52.744;15.242;2023-07-29T02:33:52;6;6;
70554;PMS5003;58104;52.744;15.242;2023-07-29T02:36:17;6;5;
70554;PMS5003;58104;52.744;15.242;2023-07-29T02:38:43;4;4;
70554;PMS5003;58104;52.744;15.242;2023-07-29T02:41:08;5;5;
70554;PMS5003;58104;52.744;15.242;2023-07-29T02:43:33;4;4;
70554;PMS5003;58104;52.744;15.242;2023-07-29T02:45:59;5;5;
70554;PMS5003;58104;52.744;15.242;2023-07-29T02:48:24;4;4;
70554;PMS5003;58104;52.744;15.242;2023-07-29T02:50:50;3;3;
70554;PMS5003;58104;52.744;15.242;2023-07-29T02:53:15;3;3;
70554;PMS5003;58104;52.744;15.242;2023-07-29T02:55:40;3;3;
70554;PMS5003;58104;52.744;15.242;2023-07-29T02:58:06;6;4;
70554;PMS5003;58104;52.744;15.242;2023-07-29T03:00:31;5;5;
70554;PMS5003;58104;52.744;15.242;2023-07-29T03:02:56;5;5;
70554;PMS5003;58104;52.744;15.242;2023-07-29T03:05:22;6;4;
70554;PMS5003;58104;52.744;15.242;2023-07-29T03:07:47;5;5;
70554;PMS5003;58104;52.744;15.242;2023-07-29T03:10:12;4;4;
70554;PMS5003;58104;52.744;15.242;2023-07-29T03:12:38;5;5;
70554;PMS5003;58104;52.744;15.242;2023-07-29T03:15:03;3;3;
70554;PMS5003;58104;52.744;15.242;2023-07-29T03:17:28;4;4;
70554;PMS5003;58104;52.744;15.242;2023-07-29T03:19:54;4;4;
70554;PMS5003;58104;52.744;15.242;2023-07-29T03:22:19;4;4;
70554;PMS5003;58104;52.744;15.242;2023-07-29T03:24:44;5;5;
70554;PMS5003;58104;52.744;15.242;2023-07-29T03:27:10;4;4;
70554;PMS5003;58104;52.744;15.242;2023-07-29T03:29:35;5;5;
70554;PMS5003;58104;52.744;15.242;2023-07-29T03:32:01;5;5;
70554;PMS5003;58104;52.744;15.242;2023-07-29T03:34:26;3;3;
70554;PMS5003;58104;52.744;15.242;2023-07-29T03:36:51;3;3;
70554;PMS5003;58104;52.744;15.242;2023-07-29T03:39:17;4;4;
70554;PMS5003;58104;52.744;15.242;2023-07-29T03:41:42;4;4;
70554;PMS5003;58104;52.744;15.242;2023-07-29T03:44:07;5;5;
70554;PMS5003;58104;52.744;15.242;2023-07-29T03:46:33;4;4;
70554;PMS5003;58104;52.744;15.242;2023-07-29T03:48:58;5;4;
70554;PMS5003;58104;52.744;15.242;2023-07-29T03:51:23;5;5;
70554;PMS5003;58104;52.744;15.242;2023-07-29T03:53:49;4;4;
70554;PMS5003;58104;52.744;15.242;2023-07-29T03:56:14;5;5;
70554;PMS5003;58104;52.744;15.242;2023-07-29T03:58:39;4;3;
70554;PMS5003;58104;52.744;15.242;2023-07-29T04:01:05;3;3;
70554;PMS5003;58104;52.744;15.242;2023-07-29T04:03:30;4;4;
70554;PMS5003;58104;52.744;15.242;2023-07-29T04:05:55;4;4;
70554;PMS5003;58104;52.744;15.242;2023-07-29T04:08:21;4;4;
70554;PMS5003;58104;52.744;15.242;2023-07-29T04:10:46;4;4;
70554;PMS5003;58104;52.744;15.242;2023-07-29T04:13:12;3;3;
70554;PMS5003;58104;52.744;15.242;2023-07-29T04:15:37;4;4;
70554;PMS5003;58104;52.744;15.242;2023-07-29T04:18:02;5;5;
70554;PMS5003;58104;52.744;15.242;2023-07-29T04:20:28;4;4;
70554;PMS5003;58104;52.744;15.242;2023-07-29T04:22:53;4;4;
70554;PMS5003;58104;52.744;15.242;2023-07-29T04:25:18;4;4;
70554;PMS5003;58104;52.744;15.242;2023-07-29T04:27:44;4;3;
70554;PMS5003;58104;52.744;15.242;2023-07-29T04:30:09;3;3;
70554;PMS5003;58104;52.744;15.242;2023-07-29T04:32:34;5;5;
70554;PMS5003;58104;52.744;15.242;2023-07-29T04:35:00;3;3;
70554;PMS5003;58104;52.744;15.242;2023-07-29T04:37:25;4;4;
70554;PMS5003;58104;52.744;15.242;2023-07-29T04:39:50;4;4;
70554;PMS5003;58104;52.744;15.242;2023-07-29T04:42:16;4;3;
70554;PMS5003;58104;52.744;15.242;2023-07-29T04:44:41;4;4;
70554;PMS5003;58104;52.744;15.242;2023-07-29T04:47:06;5;5;
70554;PMS5003;58104;52.744;15.242;2023-07-29T04:49:32;4;4;
70554;PMS5003;58104;52.744;15.242;2023-07-29T04:51:57;4;4;
70554;PMS5003;58104;52.744;15.242;2023-07-29T04:54:22;5;5;
70554;PMS5003;58104;52.744;15.242;2023-07-29T04:56:48;6;4;
70554;PMS5003;58104;52.744;15.242;2023-07-29T04:59:13;5;5;
70554;PMS5003;58104;52.744;15.242;2023-07-29T05:01:38;3;3;
70554;PMS5003;58104;52.744;15.242;2023-07-29T05:04:04;3;3;
70554;PMS5003;58104;52.744;15.242;2023-07-29T05:06:29;5;5;
70554;PMS5003;58104;52.744;15.242;2023-07-29T05:08:56;6;5;
70554;PMS5003;58104;52.744;15.242;2023-07-29T05:11:20;4;4;
70554;PMS5003;58104;52.744;15.242;2023-07-29T05:13:45;3;3;
70554;PMS5003;58104;52.744;15.242;2023-07-29T05:16:11;6;4;
70554;PMS5003;58104;52.744;15.242;2023-07-29T05:18:36;3;3;
70554;PMS5003;58104;52.744;15.242;2023-07-29T05:21:01;4;4;
70554;PMS5003;58104;52.744;15.242;2023-07-29T05:23:27;4;4;
70554;PMS5003;58104;52.744;15.242;2023-07-29T05:25:52;4;3;
70554;PMS5003;58104;52.744;15.242;2023-07-29T05:28:17;4;4;
70554;PMS5003;58104;52.744;15.242;2023-07-29T05:30:43;5;5;
70554;PMS5003;58104;52.744;15.242;2023-07-29T05:33:08;4;4;
70554;PMS5003;58104;52.744;15.242;2023-07-29T05:35:33;3;3;
70554;PMS5003;58104;52.744;15.242;2023-07-29T05:37:59;4;4;
70554;PMS5003;58104;52.744;15.242;2023-07-29T05:40:24;6;5;
70554;PMS5003;58104;52.744;15.242;2023-07-29T05:42:49;4;4;
70554;PMS5003;58104;52.744;15.242;2023-07-29T05:45:15;5;5;
70554;PMS5003;58104;52.744;15.242;2023-07-29T05:47:41;3;3;
70554;PMS5003;58104;52.744;15.242;2023-07-29T05:50:06;4;4;
70554;PMS5003;58104;52.744;15.242;2023-07-29T05:52:31;5;5;
70554;PMS5003;58104;52.744;15.242;2023-07-29T05:54:56;7;6;
70554;PMS5003;58104;52.744;15.242;2023-07-29T05:57:21;6;6;
70554;PMS5003;58104;52.744;15.242;2023-07-29T05:59:47;5;5;
70554;PMS5003;58104;52.744;15.242;2023-07-29T06:02:12;5;5;
70554;PMS5003;58104;52.744;15.242;2023-07-29T06:04:37;8;8;
70554;PMS5003;58104;52.744;15.242;2023-07-29T06:07:03;4;4;
70554;PMS5003;58104;52.744;15.242;2023-07-29T06:09:28;5;5;
70554;PMS5003;58104;52.744;15.242;2023-07-29T06:11:53;5;5;
70554;PMS5003;58104;52.744;15.242;2023-07-29T06:14:19;3;3;
70554;PMS5003;58104;52.744;15.242;2023-07-29T06:16:44;7;7;
70554;PMS5003;58104;52.744;15.242;2023-07-29T06:19:09;5;5;
70554;PMS5003;58104;52.744;15.242;2023-07-29T06:21:35;6;6;
70554;PMS5003;58104;52.744;15.242;2023-07-29T06:24:00;6;6;
70554;PMS5003;58104;52.744;15.242;2023-07-29T06:26:25;4;4;
70554;PMS5003;58104;52.744;15.242;2023-07-29T06:28:51;6;4;
70554;PMS5003;58104;52.744;15.242;2023-07-29T06:31:16;7;7;
70554;PMS5003;58104;52.744;15.242;2023-07-29T06:33:41;6;5;
70554;PMS5003;58104;52.744;15.242;2023-07-29T06:36:07;5;5;
70554;PMS5003;58104;52.744;15.242;2023-07-29T06:38:32;5;5;
70554;PMS5003;58104;52.744;15.242;2023-07-29T06:40:57;7;6;
70554;PMS5003;58104;52.744;15.242;2023-07-29T06:43:23;6;5;
70554;PMS5003;58104;52.744;15.242;2023-07-29T06:45:48;5;5;
70554;PMS5003;58104;52.744;15.242;2023-07-29T06:48:13;7;5;
70554;PMS5003;58104;52.744;15.242;2023-07-29T06:50:39;6;6;
70554;PMS5003;58104;52.744;15.242;2023-07-29T06:53:04;7;7;
70554;PMS5003;58104;52.744;15.242;2023-07-29T06:55:30;5;5;
70554;PMS5003;58104;52.744;15.242;2023-07-29T06:57:55;7;5;
70554;PMS5003;58104;52.744;15.242;2023-07-29T07:00:20;5;5;
70554;PMS5003;58104;52.744;15.242;2023-07-29T07:02:46;5;4;
70554;PMS5003;58104;52.744;15.242;2023-07-29T07:05:11;5;5;
70554;PMS5003;58104;52.744;15.242;2023-07-29T07:07:36;4;4;
70554;PMS5003;58104;52.744;15.242;2023-07-29T07:10:02;4;4;
70554;PMS5003;58104;52.744;15.242;2023-07-29T07:12:27;6;5;
70554;PMS5003;58104;52.744;15.242;2023-07-29T07:14:52;4;4;
70554;PMS5003;58104;52.744;15.242;2023-07-29T07:17:18;4;3;
70554;PMS5003;58104;52.744;15.242;2023-07-29T07:19:43;5;5;
70554;PMS5003;58104;52.744;15.242;2023-07-29T07:22:08;5;5;
70554;PMS5003;58104;52.744;15.242;2023-07-29T07:24:34;6;5;
70554;PMS5003;58104;52.744;15.242;2023-07-29T07:26:59;8;5;
70554;PMS5003;58104;52.744;15.242;2023-07-29T07:29:24;3;3;
70554;PMS5003;58104;52.744;15.242;2023-07-29T07:31:50;5;5;
70554;PMS5003;58104;52.744;15.242;2023-07-29T07:34:15;6;6;
70554;PMS5003;58104;52.744;15.242;2023-07-29T07:36:41;5;5;
70554;PMS5003;58104;52.744;15.242;2023-07-29T07:39:06;7;7;
70554;PMS5003;58104;52.744;15.242;2023-07-29T07:41:31;5;5;
70554;PMS5003;58104;52.744;15.242;2023-07-29T07:43:57;6;6;
70554;PMS5003;58104;52.744;15.242;2023-07-29T07:46:22;5;5;
70554;PMS5003;58104;52.744;15.242;2023-07-29T07:48:47;3;3;
70554;PMS5003;58104;52.744;15.242;2023-07-29T07:51:13;6;6;
70554;PMS5003;58104;52.744;15.242;2023-07-29T07:53:38;7;6;
70554;PMS5003;58104;52.744;15.242;2023-07-29T07:56:03;7;7;
70554;PMS5003;58104;52.744;15.242;2023-07-29T07:58:29;5;5;
70554;PMS5003;58104;52.744;15.242;2023-07-29T08:03:19;3;3;
70554;PMS5003;58104;52.744;15.242;2023-07-29T08:05:45;6;6;
70554;PMS5003;58104;52.744;15.242;2023-07-29T08:08:10;5;5;
70554;PMS5003;58104;52.744;15.242;2023-07-29T08:10:35;5;5;
70554;PMS5003;58104;52.744;15.242;2023-07-29T08:13:01;6;6;
70554;PMS5003;58104;52.744;15.242;2023-07-29T08:15:26;4;4;
70554;PMS5003;58104;52.744;15.242;2023-07-29T08:17:52;7;6;
70554;PMS5003;58104;52.744;15.242;2023-07-29T08:20:17;5;5;
70554;PMS5003;58104;52.744;15.242;2023-07-29T08:22:42;5;5;
70554;PMS5003;58104;52.744;15.242;2023-07-29T08:25:08;4;4;
70554;PMS5003;58104;52.744;15.242;2023-07-29T08:27:33;5;5;
70554;PMS5003;58104;52.744;15.242;2023-07-29T08:29:58;4;4;
70554;PMS5003;58104;52.744;15.242;2023-07-29T08:32:24;4;4;
70554;PMS5003;58104;52.744;15.242;2023-07-29T08:34:49;5;5;
70554;PMS5003;58104;52.744;15.242;2023-07-29T08:37:14;5;5;
70554;PMS5003;58104;52.744;15.242;2023-07-29T08:39:40;5;5;
70554;PMS5003;58104;52.744;15.242;2023-07-29T08:42:07;7;7;
70554;PMS5003;58104;52.744;15.242;2023-07-29T08:44:35;7;7;
70554;PMS5003;58104;52.744;15.242;2023-07-29T08:46:56;8;8;
70554;PMS5003;58104;52.744;15.242;2023-07-29T08:49:21;10;9;
70554;PMS5003;58104;52.744;15.242;2023-07-29T08:51:47;9;9;
70554;PMS5003;58104;52.744;15.242;2023-07-29T08:54:12;11;11;
70554;PMS5003;58104;52.744;15.242;2023-07-29T08:56:37;11;11;
70554;PMS5003;58104;52.744;15.242;2023-07-29T08:59:02;13;12;
70554;PMS5003;58104;52.744;15.242;2023-07-29T09:01:28;10;10;
70554;PMS5003;58104;52.744;15.242;2023-07-29T09:03:53;12;12;
70554;PMS5003;58104;52.744;15.242;2023-07-29T09:06:18;12;10;
70554;PMS5003;58104;52.744;15.242;2023-07-29T09:08:44;12;12;
70554;PMS5003;58104;52.744;15.242;2023-07-29T09:11:09;13;12;
70554;PMS5003;58104;52.744;15.242;2023-07-29T09:13:34;14;14;
70554;PMS5003;58104;52.744;15.242;2023-07-29T09:15:59;12;12;
70554;PMS5003;58104;52.744;15.242;2023-07-29T09:18:26;12;12;
70554;PMS5003;58104;52.744;15.242;2023-07-29T09:20:50;13;13;
70554;PMS5003;58104;52.744;15.242;2023-07-29T09:23:15;13;13;
70554;PMS5003;58104;52.744;15.242;2023-07-29T09:25:41;11;11;
70554;PMS5003;58104;52.744;15.242;2023-07-29T09:28:08;11;11;
70554;PMS5003;58104;52.744;15.242;2023-07-29T09:30:31;10;10;
70554;PMS5003;58104;52.744;15.242;2023-07-29T09:32:56;16;13;
70554;PMS5003;58104;52.744;15.242;2023-07-29T09:35:22;13;10;
70554;PMS5003;58104;52.744;15.242;2023-07-29T09:37:47;10;10;
70554;PMS5003;58104;52.744;15.242;2023-07-29T09:40:13;14;13;
70554;PMS5003;58104;52.744;15.242;2023-07-29T09:42:37;11;11;
70554;PMS5003;58104;52.744;15.242;2023-07-29T09:45:03;11;11;
70554;PMS5003;58104;52.744;15.242;2023-07-29T09:47:28;11;9;
70554;PMS5003;58104;52.744;15.242;2023-07-29T09:49:53;13;12;
70554;PMS5003;58104;52.744;15.242;2023-07-29T09:52:19;11;10;
70554;PMS5003;58104;52.744;15.242;2023-07-29T09:54:44;10;8;
70554;PMS5003;58104;52.744;15.242;2023-07-29T09:57:10;12;12;
70554;PMS5003;58104;52.744;15.242;2023-07-29T09:59:35;12;12;
70554;PMS5003;58104;52.744;15.242;2023-07-29T10:02:00;10;10;
70554;PMS5003;58104;52.744;15.242;2023-07-29T10:04:25;3;3;
70554;PMS5003;58104;52.744;15.242;2023-07-29T10:06:51;0;0;
70554;PMS5003;58104;52.744;15.242;2023-07-29T10:09:16;0;0;
70554;PMS5003;58104;52.744;15.242;2023-07-29T10:11:41;0;0;
70554;PMS5003;58104;52.744;15.242;2023-07-29T10:14:07;0;0;
70554;PMS5003;58104;52.744;15.242;2023-07-29T10:16:32;0;0;
70554;PMS5003;58104;52.744;15.242;2023-07-29T10:18:57;0;0;
70554;PMS5003;58104;52.744;15.242;2023-07-29T10:21:23;0;0;
70554;PMS5003;58104;52.744;15.242;2023-07-29T10:23:48;0;0;
70554;PMS5003;58104;52.744;15.242;2023-07-29T10:26:13;0;0;
70554;PMS5003;58104;52.744;15.242;2023-07-29T10:28:39;1;1;
70554;PMS5003;58104;52.744;15.242;2023-07-29T10:31:04;3;3;
70554;PMS5003;58104;52.744;15.242;2023-07-29T10:33:29;3;3;
70554;PMS5003;58104;52.744;15.242;2023-07-29T10:35:55;4;3;
70554;PMS5003;58104;52.744;15.242;2023-07-29T10:38:20;6;4;
70554;PMS5003;58104;52.744;15.242;2023-07-29T10:40:46;5;4;
70554;PMS5003;58104;52.744;15.242;2023-07-29T10:43:11;6;5;
70554;PMS5003;58104;52.744;15.242;2023-07-29T10:45:37;6;5;
70554;PMS5003;58104;52.744;15.242;2023-07-29T10:48:04;4;4;
70554;PMS5003;58104;52.744;15.242;2023-07-29T10:50:27;4;4;
70554;PMS5003;58104;52.744;15.242;2023-07-29T10:52:52;9;5;
70554;PMS5003;58104;52.744;15.242;2023-07-29T10:55:25;4;4;
70554;PMS5003;58104;52.744;15.242;2023-07-29T10:57:43;5;5;
70554;PMS5003;58104;52.744;15.242;2023-07-29T11:00:08;6;6;
70554;PMS5003;58104;52.744;15.242;2023-07-29T11:02:34;6;6;
70554;PMS5003;58104;52.744;15.242;2023-07-29T11:04:59;8;7;
70554;PMS5003;58104;52.744;15.242;2023-07-29T11:07:24;7;6;
70554;PMS5003;58104;52.744;15.242;2023-07-29T11:09:51;5;5;
70554;PMS5003;58104;52.744;15.242;2023-07-29T11:14:40;7;7;
70554;PMS5003;58104;52.744;15.242;2023-07-29T11:17:05;7;7;
70554;PMS5003;58104;52.744;15.242;2023-07-29T11:19:31;7;7;
70554;PMS5003;58104;52.744;15.242;2023-07-29T11:21:56;7;7;
70554;PMS5003;58104;52.744;15.242;2023-07-29T11:24:21;10;7;
70554;PMS5003;58104;52.744;15.242;2023-07-29T11:26:47;9;9;
70554;PMS5003;58104;52.744;15.242;2023-07-29T11:29:12;9;8;
70554;PMS5003;58104;52.744;15.242;2023-07-29T11:31:39;9;8;
70554;PMS5003;58104;52.744;15.242;2023-07-29T11:34:06;9;9;
70554;PMS5003;58104;52.744;15.242;2023-07-29T11:36:28;7;7;
70554;PMS5003;58104;52.744;15.242;2023-07-29T11:38:54;8;8;
70554;PMS5003;58104;52.744;15.242;2023-07-29T11:41:19;11;11;
70554;PMS5003;58104;52.744;15.242;2023-07-29T11:43:44;10;9;
70554;PMS5003;58104;52.744;15.242;2023-07-29T11:46:10;10;10;
70554;PMS5003;58104;52.744;15.242;2023-07-29T11:48:35;9;9;
70554;PMS5003;58104;52.744;15.242;2023-07-29T11:51:00;9;9;
70554;PMS5003;58104;52.744;15.242;2023-07-29T11:53:27;10;10;
70554;PMS5003;58104;52.744;15.242;2023-07-29T11:55:51;11;9;
70554;PMS5003;58104;52.744;15.242;2023-07-29T11:58:16;9;9;
70554;PMS5003;58104;52.744;15.242;2023-07-29T12:00:42;9;9;
70554;PMS5003;58104;52.744;15.242;2023-07-29T12:03:07;11;11;
70554;PMS5003;58104;52.744;15.242;2023-07-29T12:05:33;9;8;
70554;PMS5003;58104;52.744;15.242;2023-07-29T12:07:57;9;9;
70554;PMS5003;58104;52.744;15.242;2023-07-29T12:10:23;11;11;
70554;PMS5003;58104;52.744;15.242;2023-07-29T12:12:49;10;10;
70554;PMS5003;58104;52.744;15.242;2023-07-29T12:15:14;11;9;
70554;PMS5003;58104;52.744;15.242;2023-07-29T12:17:39;11;8;
70554;PMS5003;58104;52.744;15.242;2023-07-29T12:20:07;9;9;
70554;PMS5003;58104;52.744;15.242;2023-07-29T12:22:30;10;7;
70554;PMS5003;58104;52.744;15.242;2023-07-29T12:24:55;11;11;
70554;PMS5003;58104;52.744;15.242;2023-07-29T12:27:21;9;9;
70554;PMS5003;58104;52.744;15.242;2023-07-29T12:29:46;6;6;
70554;PMS5003;58104;52.744;15.242;2023-07-29T12:32:11;8;8;
70554;PMS5003;58104;52.744;15.242;2023-07-29T12:34:37;12;10;
70554;PMS5003;58104;52.744;15.242;2023-07-29T12:37:02;14;12;
70554;PMS5003;58104;52.744;15.242;2023-07-29T12:39:28;22;17;
70554;PMS5003;58104;52.744;15.242;2023-07-29T12:41:52;51;39;
70554;PMS5003;58104;52.744;15.242;2023-07-29T12:44:18;54;48;
70554;PMS5003;58104;52.744;15.242;2023-07-29T12:46:43;70;64;
70554;PMS5003;58104;52.744;15.242;2023-07-29T12:49:08;95;87;
70554;PMS5003;58104;52.744;15.242;2023-07-29T12:51:34;127;118;
70554;PMS5003;58104;52.744;15.242;2023-07-29T12:53:59;133;127;
70554;PMS5003;58104;52.744;15.242;2023-07-29T12:56:24;128;117;
70554;PMS5003;58104;52.744;15.242;2023-07-29T12:58:50;137;122;
70554;PMS5003;58104;52.744;15.242;2023-07-29T13:01:15;134;120;
70554;PMS5003;58104;52.744;15.242;2023-07-29T13:03:41;118;110;
70554;PMS5003;58104;52.744;15.242;2023-07-29T13:06:06;124;116;
70554;PMS5003;58104;52.744;15.242;2023-07-29T13:08:31;120;108;
70554;PMS5003;58104;52.744;15.242;2023-07-29T13:10:57;116;106;
70554;PMS5003;58104;52.744;15.242;2023-07-29T13:13:22;113;103;
70554;PMS5003;58104;52.744;15.242;2023-07-29T13:15:48;114;103;
70554;PMS5003;58104;52.744;15.242;2023-07-29T13:18:13;111;100;
70554;PMS5003;58104;52.744;15.242;2023-07-29T13:20:39;100;96;
70554;PMS5003;58104;52.744;15.242;2023-07-29T13:23:05;109;95;
70554;PMS5003;58104;52.744;15.242;2023-07-29T13:25:30;96;93;
70554;PMS5003;58104;52.744;15.242;2023-07-29T13:27:55;97;89;
70554;PMS5003;58104;52.744;15.242;2023-07-29T13:30:20;91;82;
70554;PMS5003;58104;52.744;15.242;2023-07-29T13:32:46;88;82;
70554;PMS5003;58104;52.744;15.242;2023-07-29T13:35:11;89;83;
70554;PMS5003;58104;52.744;15.242;2023-07-29T13:37:36;79;74;
70554;PMS5003;58104;52.744;15.242;2023-07-29T13:40:02;86;78;
70554;PMS5003;58104;52.744;15.242;2023-07-29T13:42:32;85;78;
70554;PMS5003;58104;52.744;15.242;2023-07-29T13:44:53;91;76;
70554;PMS5003;58104;52.744;15.242;2023-07-29T13:47:19;78;74;
70554;PMS5003;58104;52.744;15.242;2023-07-29T13:49:44;80;72;
70554;PMS5003;58104;52.744;15.242;2023-07-29T13:52:10;81;73;
70554;PMS5003;58104;52.744;15.242;2023-07-29T13:54:36;74;69;
70554;PMS5003;58104;52.744;15.242;2023-07-29T13:57:01;85;77;
70554;PMS5003;58104;52.744;15.242;2023-07-29T13:59:27;72;66;
70554;PMS5003;58104;52.744;15.242;2023-07-29T14:01:52;70;69;
70554;PMS5003;58104;52.744;15.242;2023-07-29T14:04:18;72;68;
70554;PMS5003;58104;52.744;15.242;2023-07-29T14:06:43;68;62;
70554;PMS5003;58104;52.744;15.242;2023-07-29T14:09:09;68;62;
70554;PMS5003;58104;52.744;15.242;2023-07-29T14:11:35;68;64;
70554;PMS5003;58104;52.744;15.242;2023-07-29T14:14:00;73;69;
70554;PMS5003;58104;52.744;15.242;2023-07-29T14:16:25;68;63;
70554;PMS5003;58104;52.744;15.242;2023-07-29T14:18:50;68;63;
70554;PMS5003;58104;52.744;15.242;2023-07-29T14:21:16;62;56;
70554;PMS5003;58104;52.744;15.242;2023-07-29T14:23:41;62;56;
70554;PMS5003;58104;52.744;15.242;2023-07-29T14:26:07;65;58;
70554;PMS5003;58104;52.744;15.242;2023-07-29T14:28:32;57;54;
70554;PMS5003;58104;52.744;15.242;2023-07-29T14:30:57;62;53;
70554;PMS5003;58104;52.744;15.242;2023-07-29T14:33:22;70;64;
70554;PMS5003;58104;52.744;15.242;2023-07-29T14:35:48;58;54;
70554;PMS5003;58104;52.744;15.242;2023-07-29T14:38:13;59;50;
70554;PMS5003;58104;52.744;15.242;2023-07-29T14:40:38;59;53;
70554;PMS5003;58104;52.744;15.242;2023-07-29T14:43:04;62;54;
70554;PMS5003;58104;52.744;15.242;2023-07-29T14:45:29;67;63;
70554;PMS5003;58104;52.744;15.242;2023-07-29T14:47:55;56;55;
70554;PMS5003;58104;52.744;15.242;2023-07-29T14:50:20;54;51;
70554;PMS5003;58104;52.744;15.242;2023-07-29T14:52:46;62;56;
70554;PMS5003;58104;52.744;15.242;2023-07-29T14:55:11;61;49;
70554;PMS5003;58104;52.744;15.242;2023-07-29T14:57:36;60;50;
70554;PMS5003;58104;52.744;15.242;2023-07-29T15:00:02;51;48;
70554;PMS5003;58104;52.744;15.242;2023-07-29T15:02:27;54;48;
70554;PMS5003;58104;52.744;15.242;2023-07-29T15:04:52;41;39;
70554;PMS5003;58104;52.744;15.242;2023-07-29T15:07:17;29;27;
70554;PMS5003;58104;52.744;15.242;2023-07-29T15:09:43;43;40;
70554;PMS5003;58104;52.744;15.242;2023-07-29T15:12:08;33;30;
70554;PMS5003;58104;52.744;15.242;2023-07-29T15:14:33;42;32;
70554;PMS5003;58104;52.744;15.242;2023-07-29T15:16:59;37;32;
70554;PMS5003;58104;52.744;15.242;2023-07-29T15:19:24;33;31;
70554;PMS5003;58104;52.744;15.242;2023-07-29T15:21:49;29;29;
70554;PMS5003;58104;52.744;15.242;2023-07-29T15:24:14;31;31;
70554;PMS5003;58104;52.744;15.242;2023-07-29T15:26:40;35;32;
70554;PMS5003;58104;52.744;15.242;2023-07-29T15:29:05;36;36;
70554;PMS5003;58104;52.744;15.242;2023-07-29T15:31:31;31;29;
70554;PMS5003;58104;52.744;15.242;2023-07-29T15:33:56;36;29;
70554;PMS5003;58104;52.744;15.242;2023-07-29T15:36:22;37;32;
70554;PMS5003;58104;52.744;15.242;2023-07-29T15:38:47;31;31;
70554;PMS5003;58104;52.744;15.242;2023-07-29T15:41:13;31;28;
70554;PMS5003;58104;52.744;15.242;2023-07-29T15:43:38;34;33;
70554;PMS5003;58104;52.744;15.242;2023-07-29T15:46:04;28;26;
70554;PMS5003;58104;52.744;15.242;2023-07-29T15:48:29;35;30;
70554;PMS5003;58104;52.744;15.242;2023-07-29T15:50:55;31;26;
70554;PMS5003;58104;52.744;15.242;2023-07-29T15:53:20;28;25;
70554;PMS5003;58104;52.744;15.242;2023-07-29T15:55:46;35;30;
70554;PMS5003;58104;52.744;15.242;2023-07-29T15:58:12;36;31;
70554;PMS5003;58104;52.744;15.242;2023-07-29T16:00:38;37;33;
70554;PMS5003;58104;52.744;15.242;2023-07-29T16:03:03;29;26;
70554;PMS5003;58104;52.744;15.242;2023-07-29T16:05:29;31;28;
70554;PMS5003;58104;52.744;15.242;2023-07-29T16:07:54;29;27;
70554;PMS5003;58104;52.744;15.242;2023-07-29T16:10:20;30;29;
70554;PMS5003;58104;52.744;15.242;2023-07-29T16:12:45;30;29;